Time;durP1;ratioP1;P1;durP2;ratioP2;P2;SDS_P1;SDS_P2;PMS_P1;PMS_P2;Temp;Humidity;BMP_temperature;BMP_pressure;BME280_temperature;BME280_humidity;BME280_pressure;Samples;Min_cycle;Max_cycle;Signal;HPM_P1;HPM_P2
2022/04/25 03:15:13;;;;;;;;;;;;;;;7.40;100.00;98635.69;6331125;22;19929;-84
2022/04/25 03:17:38;;;;;;;;;;;;;;;7.41;100.00;98638.25;6308547;22;19925;-83
2022/04/25 03:20:04;;;;;;;;;;;;;;;7.44;100.00;98643.38;6337787;22;19915;-84
2022/04/25 03:22:29;;;;;;;;;;;;;;;7.43;100.00;98649.56;6310271;22;20226;-84
2022/04/25 03:24:54;;;;;;;;;;;;;;;7.45;100.00;98639.81;6310009;22;20011;-87
2022/04/25 03:27:20;;;;;;;;;;;;;;;7.47;100.00;98639.75;6337988;22;20322;-86
2022/04/25 03:29:45;;;;;;;;;;;;;;;7.48;100.00;98635.31;6336194;22;19922;-86
2022/04/25 03:32:10;;;;;;;;;;;;;;;7.52;100.00;98628.97;6309922;22;19911;-87
2022/04/25 03:34:37;;;;;;;;;;;;;;;7.53;100.00;98641.22;6310358;22;20001;-85
2022/04/25 03:37:03;;;;;;;;;;;;;;;7.54;100.00;98645.56;6310183;22;19985;-89
2022/04/25 03:39:29;;;;;;;;;;;;;;;7.53;100.00;98642.09;6311240;22;20326;-87
2022/04/25 03:41:54;;;;;;;;;;;;;;;7.57;100.00;98646.25;6339631;22;19999;-87
2022/04/25 03:44:19;;;;;;;;;;;;;;;7.58;100.00;98639.22;6310073;22;19915;-85
2022/04/25 03:46:45;;;;;;;;;;;;;;;7.54;100.00;98635.03;6312032;22;19910;-87
2022/04/25 03:49:10;;;;;;;;;;;;;;;7.55;100.00;98640.22;6339937;22;19915;-83
2022/04/25 03:51:35;;;;;;;;;;;;;;;7.84;100.00;98631.81;6302534;22;19919;-86
2022/04/25 03:54:00;;;;;;;;;;;;;;;7.97;100.00;98630.25;6339436;22;19952;-82
2022/04/25 03:59:09;;;;;;;;;;;;;;;7.08;100.00;98641.56;6337914;22;19922;-87
2022/04/25 04:01:36;;;;;;;;;;;;;;;6.83;100.00;98641.84;6311741;22;20120;-82
2022/04/25 04:04:04;;;;;;;;;;;;;;;6.62;100.00;98641.03;6310883;22;19911;-83
2022/04/25 04:06:30;;;;;;;;;;;;;;;6.50;100.00;98633.69;6310860;22;19915;-84
2022/04/25 04:08:55;;;;;;;;;;;;;;;6.33;100.00;98637.94;6304905;22;19910;-82
2022/04/25 04:11:20;;;;;;;;;;;;;;;6.21;100.00;98650.72;6311784;22;19916;-85
2022/04/25 04:13:47;;;;;;;;;;;;;;;6.22;100.00;98650.66;6311714;22;19915;-85
2022/04/25 04:16:12;;;;;;;;;;;;;;;6.06;100.00;98653.09;6304642;22;19929;-82
2022/04/25 04:18:40;;;;;;;;;;;;;;;6.02;100.00;98648.91;6306347;22;19911;-82
2022/04/25 04:21:06;;;;;;;;;;;;;;;5.97;100.00;98650.88;6306894;22;20307;-82
2022/04/25 04:23:31;;;;;;;;;;;;;;;5.87;100.00;98653.00;6299197;22;19915;-82
2022/04/25 04:25:56;;;;;;;;;;;;;;;5.87;100.00;98646.88;6306254;22;20330;-84
2022/04/25 08:00:43;;;;;;;;;;;;;;;4.53;88.71;98808.59;6328430;22;19926;-83
2022/04/25 08:03:09;;;;;;;;;;;;;;;4.47;88.96;98816.66;6308469;22;19919;-84
2022/04/25 08:05:34;;;;;;;;;;;;;;;4.52;88.95;98824.38;6334994;22;19922;-85
2022/04/25 08:07:59;;;;;;;;;;;;;;;4.50;88.99;98826.19;6309321;22;19914;-84
2022/04/25 08:10:24;;;;;;;;;;;;;;;4.48;89.05;98820.13;6337186;22;19985;-83
2022/04/25 08:18:17;;;;;;;;;;;;;;;4.49;89.20;98820.09;6336729;22;19925;-84
2022/04/25 08:20:43;;;;;;;;;;;;;;;4.50;89.34;98819.19;6336231;22;20249;-83
2022/04/25 08:23:12;;;;;;;;;;;;;;;4.39;89.43;98820.44;6308042;22;19921;-84
2022/04/25 08:25:38;;;;;;;;;;;;;;;4.47;89.72;98827.16;6336977;22;19960;-86
2022/04/25 08:28:05;;;;;;;;;;;;;;;4.41;89.54;98826.50;6310523;22;19911;-85
2022/04/25 08:30:30;;;;;;;;;;;;;;;4.41;89.76;98826.50;6309130;22;19911;-83
2022/04/25 08:32:56;;;;;;;;;;;;;;;4.43;89.78;98830.78;6336879;22;20373;-84
2022/04/25 08:35:21;;;;;;;;;;;;;;;4.63;90.94;98843.25;6311886;22;19915;-83
2022/04/25 08:37:46;;;;;;;;;;;;;;;4.91;94.93;98842.28;6338687;22;19942;-85
2022/04/25 08:40:12;;;;;;;;;;;;;;;5.09;97.69;98848.69;6308722;22;19910;-84
2022/04/25 08:42:37;;;;;;;;;;;;;;;5.27;99.46;98850.63;6311130;22;19910;-83
2022/04/25 08:45:05;;;;;;;;;;;;;;;5.36;100.00;98848.59;6309667;22;19921;-85
2022/04/25 08:47:34;;;;;;;;;;;;;;;5.54;100.00;98849.69;6311643;22;19922;-82
2022/04/25 08:49:59;;;;;;;;;;;;;;;5.66;100.00;98848.38;6310350;22;19998;-88
2022/04/25 08:52:28;;;;;;;;;;;;;;;5.81;100.00;98853.06;6311400;22;19961;-82
2022/04/25 08:55:00;;;;;;;;;;;;;;;5.73;100.00;98848.09;6311082;22;19922;-83
2022/04/25 08:57:28;;;;;;;;;;;;;;;5.60;100.00;98849.44;6310100;22;19934;-83
2022/04/25 08:59:55;;;;;;;;;;;;;;;5.52;100.00;98849.75;6335335;22;20223;-86
2022/04/25 09:02:20;;;;;;;;;;;;;;;5.40;100.00;98850.19;6337698;22;19910;-82
2022/04/25 09:04:46;;;;;;;;;;;;;;;5.34;100.00;98851.28;6338019;22;19971;-82
2022/04/25 09:07:12;;;;;;;;;;;;;;;5.31;100.00;98855.78;6338719;22;19953;-82
2022/04/25 09:09:37;;;;;;;;;;;;;;;5.26;100.00;98854.19;6338461;22;19918;-86
2022/04/25 09:12:12;;;;;;;;;;;;;;;5.23;100.00;98864.81;6337849;22;19917;-82
2022/04/25 09:14:40;;;;;;;;;;;;;;;5.19;100.00;98863.19;6335636;22;19910;-82
2022/04/25 09:17:05;;;;;;;;;;;;;;;5.14;100.00;98869.50;6336259;22;19933;-82
2022/04/25 09:19:31;;;;;;;;;;;;;;;5.13;100.00;98862.56;6335813;22;20314;-88
2022/04/25 09:21:56;;;;;;;;;;;;;;;5.14;100.00;98867.75;6337467;22;19917;-87
2022/04/25 09:24:29;;;;;;;;;;;;;;;5.05;100.00;98865.44;6336326;22;19914;-87
2022/04/25 09:27:06;;;;;;;;;;;;;;;4.93;100.00;98873.75;6310933;22;19910;-82
2022/04/25 09:29:32;;;;;;;;;;;;;;;4.97;100.00;98873.59;6336116;22;19964;-82
2022/04/25 09:31:57;;;;;;;;;;;;;;;5.00;100.00;98872.63;6310225;22;19910;-81
2022/04/25 09:37:06;;;;;;;;;;;;;;;4.89;100.00;98886.97;6338527;22;19921;-84
2022/04/25 09:39:32;;;;;;;;;;;;;;;4.97;100.00;98878.00;6337117;22;19911;-81
2022/04/25 09:41:57;;;;;;;;;;;;;;;4.93;99.88;98881.63;6310721;22;19918;-83
2022/04/25 09:44:23;;;;;;;;;;;;;;;4.83;99.15;98875.81;6306634;22;19914;-83
2022/04/25 09:46:49;;;;;;;;;;;;;;;4.78;98.94;98889.09;6306606;22;19986;-81
2022/04/25 09:49:20;;;;;;;;;;;;;;;4.76;98.97;98890.94;6334821;22;19938;-81
2022/04/25 09:52:02;;;;;;;;;;;;;;;4.82;98.78;98887.22;6308892;22;19985;-85
2022/04/25 09:54:28;;;;;;;;;;;;;;;4.86;98.37;98891.47;6309691;22;19910;-82
2022/04/25 09:56:53;;;;;;;;;;;;;;;4.77;97.96;98891.78;6337997;22;19956;-82
2022/04/25 09:59:21;;;;;;;;;;;;;;;4.79;98.21;98895.22;6308477;22;19911;-82
2022/04/25 10:02:00;;;;;;;;;;;;;;;4.82;98.05;98885.47;6304486;22;19968;-81
2022/04/25 10:04:31;;;;;;;;;;;;;;;4.62;98.12;98882.66;6303770;22;20456;-82
2022/04/25 10:06:58;;;;;;;;;;;;;;;4.61;98.42;98881.81;6304835;22;19918;-81
2022/04/25 10:09:24;;;;;;;;;;;;;;;4.62;98.65;98877.41;6304687;22;20742;-81
2022/04/25 10:11:49;;;;;;;;;;;;;;;4.70;98.15;98878.00;6304331;22;19918;-82
2022/04/25 10:14:16;;;;;;;;;;;;;;;4.66;98.17;98882.50;6300736;22;20631;-82
2022/04/25 10:16:41;;;;;;;;;;;;;;;4.54;97.88;98881.13;6303008;22;20278;-86
2022/04/25 10:19:08;;;;;;;;;;;;;;;4.58;98.15;98888.91;6329362;22;19919;-82
2022/04/25 10:21:34;;;;;;;;;;;;;;;4.55;97.93;98877.59;6302745;22;19922;-86
2022/04/25 10:23:59;;;;;;;;;;;;;;;4.63;97.93;98887.00;6304232;22;20258;-87
2022/04/25 10:26:29;;;;;;;;;;;;;;;4.58;97.78;98892.41;6297068;22;19945;-82
2022/04/25 10:28:55;;;;;;;;;;;;;;;4.57;97.97;98889.81;6304927;22;19911;-86
2022/04/25 10:31:38;;;;;;;;;;;;;;;4.59;98.25;98888.84;6301881;22;19923;-81
2022/04/25 10:34:05;;;;;;;;;;;;;;;4.65;98.00;98893.06;6303875;22;19911;-83
2022/04/25 10:36:36;;;;;;;;;;;;;;;4.66;97.59;98897.38;6301944;22;19914;-82
2022/04/25 10:39:18;;;;;;;;;;;;;;;4.60;97.77;98900.22;6330335;22;19915;-85
2022/04/25 10:44:47;;;;;;;;;;;;;;;4.56;97.69;98899.44;6298591;22;19922;-83
2022/04/25 10:47:18;;;;;;;;;;;;;;;4.54;97.79;98899.50;6325306;22;19910;-82
2022/04/25 10:49:52;;;;;;;;;;;;;;;4.61;98.51;98894.94;6293440;22;19989;-83
2022/04/25 10:52:43;;;;;;;;;;;;;;;4.62;98.41;98893.16;6327236;22;19911;-82
2022/04/25 10:55:12;;;;;;;;;;;;;;;4.50;98.19;98892.66;6325501;22;19984;-81
2022/04/25 10:57:58;;;;;;;;;;;;;;;4.57;98.06;98898.56;6327592;22;19911;-81
2022/04/25 11:00:43;;;;;;;;;;;;;;;4.51;97.70;98896.97;6297890;22;19919;-83
2022/04/25 11:03:12;;;;;;;;;;;;;;;4.53;97.49;98899.53;6303561;22;19945;-83
2022/04/25 11:05:39;;;;;;;;;;;;;;;4.52;97.16;98896.06;6305468;22;20311;-85
2022/04/25 11:08:19;;;;;;;;;;;;;;;4.55;96.89;98901.22;6304445;22;19915;-82
2022/04/25 11:10:57;;;;;;;;;;;;;;;4.62;96.98;98894.00;6298320;22;19918;-82
2022/04/25 11:13:23;;;;;;;;;;;;;;;4.59;96.78;98895.88;6297662;22;19918;-83
2022/04/25 11:15:53;;;;;;;;;;;;;;;4.51;96.86;98893.50;6273051;22;19912;-83
2022/04/25 11:18:33;;;;;;;;;;;;;;;4.51;96.66;98890.88;6273343;22;20273;-83
2022/04/25 11:21:07;;;;;;;;;;;;;;;4.53;96.89;98899.53;6299295;22;20261;-83
2022/04/25 11:23:47;;;;;;;;;;;;;;;4.54;96.94;98889.00;6275476;22;19966;-84
2022/04/25 11:26:25;;;;;;;;;;;;;;;4.55;96.94;98885.47;6274387;22;19950;-85
2022/04/25 11:29:03;;;;;;;;;;;;;;;4.52;96.69;98882.94;6273163;22;20254;-83
2022/04/25 11:31:30;;;;;;;;;;;;;;;4.53;96.85;98889.03;6274467;22;19911;-84
2022/04/25 11:33:57;;;;;;;;;;;;;;;4.54;97.19;98890.78;6273880;22;20331;-83
2022/04/25 11:36:23;;;;;;;;;;;;;;;4.53;96.87;98884.69;6274228;22;19961;-83
2022/04/25 11:41:34;;;;;;;;;;;;;;;4.53;97.36;98889.94;6275421;22;20287;-82
2022/04/25 11:43:59;;;;;;;;;;;;;;;4.53;97.69;98895.19;6271724;22;19939;-83
2022/04/25 11:46:29;;;;;;;;;;;;;;;4.53;97.65;98899.53;6274867;22;19921;-86
2022/04/25 11:48:56;;;;;;;;;;;;;;;4.52;97.57;98890.81;6272152;22;20318;-82
2022/04/25 11:51:22;;;;;;;;;;;;;;;4.57;97.45;98895.94;6271626;22;20385;-83
2022/04/25 11:53:47;;;;;;;;;;;;;;;4.50;97.32;98890.03;6273040;22;19997;-86
2022/04/25 11:56:13;;;;;;;;;;;;;;;4.57;96.98;98901.19;6273949;22;19995;-83
2022/04/25 11:58:39;;;;;;;;;;;;;;;4.57;96.98;98895.06;6272339;22;19915;-82
2022/04/25 12:01:13;;;;;;;;;;;;;;;4.58;97.21;98896.78;6298064;22;19926;-83
2022/04/25 12:03:38;;;;;;;;;;;;;;;4.50;97.00;98884.78;6307656;22;20322;-82
2022/04/25 12:06:08;;;;;;;;;;;;;;;4.57;97.04;98895.06;6280721;22;19941;-87
2022/04/25 12:16:46;;;;;;;;;;;;;;;4.55;96.21;98893.34;6308158;22;19941;-85
2022/04/25 12:19:13;;;;;;;;;;;;;;;4.61;96.24;98897.56;6306527;22;19928;-82
2022/04/25 12:21:44;;;;;;;;;;;;;;;4.64;96.41;98886.09;6307218;22;19915;-83
2022/04/25 12:24:16;;;;;;;;;;;;;;;4.68;95.90;98885.09;6306975;22;19918;-84
2022/04/25 12:26:41;;;;;;;;;;;;;;;4.66;95.89;98890.38;6307362;22;19964;-83
2022/04/25 12:29:09;;;;;;;;;;;;;;;4.66;95.85;98886.88;6304504;22;19918;-83
2022/04/25 12:31:46;;;;;;;;;;;;;;;4.63;95.62;98884.38;6307284;22;19918;-86
2022/04/25 12:34:15;;;;;;;;;;;;;;;4.62;95.66;98885.28;6306934;22;20000;-82
2022/04/25 12:36:54;;;;;;;;;;;;;;;4.59;95.57;98882.75;6307872;22;20377;-83
2022/04/25 12:39:20;;;;;;;;;;;;;;;4.62;95.53;98888.75;6307333;22;19915;-82
2022/04/25 12:41:56;;;;;;;;;;;;;;;4.62;95.46;98883.50;6305559;22;19918;-82
2022/04/25 12:44:22;;;;;;;;;;;;;;;4.64;95.29;98888.72;6306007;22;20319;-86
2022/04/25 12:46:59;;;;;;;;;;;;;;;4.64;95.11;98880.84;6307449;22;19918;-83
2022/04/25 12:49:35;;;;;;;;;;;;;;;4.70;95.35;98876.22;6307007;22;19911;-87
2022/04/25 12:52:01;;;;;;;;;;;;;;;5.05;98.14;98879.44;6307744;22;19917;-85
2022/04/25 12:54:30;;;;;;;;;;;;;;;5.42;100.00;98882.53;6307682;22;19985;-86
2022/04/25 12:57:08;;;;;;;;;;;;;;;5.66;100.00;98883.38;6279599;22;19964;-86
2022/04/25 12:59:34;;;;;;;;;;;;;;;5.86;100.00;98881.81;6305974;22;20273;-82
2022/04/25 13:02:02;;;;;;;;;;;;;;;5.97;100.00;98883.13;6279881;22;19946;-82
2022/04/25 13:04:28;;;;;;;;;;;;;;;6.07;100.00;98882.78;6307667;22;19923;-82
2022/04/25 13:06:53;;;;;;;;;;;;;;;6.16;100.00;98885.06;6278886;22;20004;-83
2022/04/25 13:09:18;;;;;;;;;;;;;;;6.24;100.00;98884.72;6305185;22;20326;-83
2022/04/25 13:11:44;;;;;;;;;;;;;;;6.29;100.00;98886.28;6307460;22;19911;-84
2022/04/25 13:14:09;;;;;;;;;;;;;;;6.36;100.00;98885.09;6305111;22;19937;-82
2022/04/25 13:16:34;;;;;;;;;;;;;;;6.45;100.00;98888.31;6307674;22;19911;-83
2022/04/25 13:19:00;;;;;;;;;;;;;;;6.54;100.00;98887.91;6306473;22;19915;-85
2022/04/25 13:21:26;;;;;;;;;;;;;;;6.57;100.00;98890.41;6306104;22;19989;-84
2022/04/25 13:23:52;;;;;;;;;;;;;;;6.62;100.00;98895.50;6307418;22;19985;-84
2022/04/25 13:26:18;;;;;;;;;;;;;;;6.67;100.00;98912.84;6305818;22;20393;-83
2022/04/25 13:28:43;;;;;;;;;;;;;;;6.80;100.00;98925.50;6304105;22;19911;-83
2022/04/25 13:31:08;;;;;;;;;;;;;;;6.86;100.00;98931.38;6306631;22;19911;-84
2022/04/25 13:33:34;;;;;;;;;;;;;;;6.94;100.00;98954.75;6306069;22;19911;-84
2022/04/25 13:35:59;;;;;;;;;;;;;;;7.03;100.00;98942.97;6280383;22;19942;-84
2022/04/25 13:38:26;;;;;;;;;;;;;;;7.05;100.00;98951.66;6279737;22;19915;-82
2022/04/25 13:40:51;;;;;;;;;;;;;;;7.05;100.00;98951.66;6306389;22;19953;-86
2022/04/25 13:43:17;;;;;;;;;;;;;;;7.07;100.00;98955.09;6306275;22;19915;-86
2022/04/25 13:45:42;;;;;;;;;;;;;;;7.07;100.00;98955.09;6305060;22;20322;-86
2022/04/25 13:48:08;;;;;;;;;;;;;;;7.11;100.00;98961.09;6305750;22;19956;-82
2022/04/25 13:50:36;;;;;;;;;;;;;;;7.09;100.00;98962.00;6306662;22;19911;-83
2022/04/25 13:53:02;;;;;;;;;;;;;;;7.15;100.00;98960.03;6307134;22;20277;-85
2022/04/25 13:55:30;;;;;;;;;;;;;;;7.12;100.00;98962.81;6306920;22;19914;-85
2022/04/25 13:57:56;;;;;;;;;;;;;;;7.16;100.00;98970.50;6306055;22;19951;-84
2022/04/25 14:00:21;;;;;;;;;;;;;;;7.18;100.00;98959.91;6304595;22;19914;-84
2022/04/25 14:03:05;;;;;;;;;;;;;;;7.22;100.00;98953.59;6305436;22;20358;-87
2022/04/25 14:05:31;;;;;;;;;;;;;;;7.25;100.00;98943.78;6307072;22;19933;-87
2022/04/25 14:07:56;;;;;;;;;;;;;;;7.28;100.00;98927.00;6306005;22;20331;-82
2022/04/25 14:10:22;;;;;;;;;;;;;;;7.26;100.00;98934.97;6306757;22;19911;-86
2022/04/25 14:12:47;;;;;;;;;;;;;;;7.28;100.00;98934.91;6306726;22;20319;-83
2022/04/25 14:15:13;;;;;;;;;;;;;;;7.30;100.00;98924.28;6305009;22;19915;-83
2022/04/25 14:17:38;;;;;;;;;;;;;;;7.35;100.00;98922.31;6306900;22;19986;-86
2022/04/25 14:20:04;;;;;;;;;;;;;;;7.30;100.00;98908.47;6279680;22;20250;-87
2022/04/25 14:22:29;;;;;;;;;;;;;;;7.34;100.00;98905.66;6306407;22;19934;-84
2022/04/25 14:24:55;;;;;;;;;;;;;;;7.36;100.00;98916.97;6306748;22;19918;-83
2022/04/25 14:27:20;;;;;;;;;;;;;;;7.36;100.00;98916.97;6306563;22;19915;-86
2022/04/25 14:29:46;;;;;;;;;;;;;;;6.75;100.00;98911.66;6305196;22;19914;-84
2022/04/25 14:32:12;;;;;;;;;;;;;;;6.36;100.00;98913.19;6306822;22;19918;-82
2022/04/25 14:34:37;;;;;;;;;;;;;;;6.20;100.00;98905.06;6306208;22;20396;-82
2022/04/25 14:37:02;;;;;;;;;;;;;;;6.07;100.00;98914.34;6307166;22;19911;-82
2022/04/25 14:39:28;;;;;;;;;;;;;;;5.99;100.00;98906.75;6306710;22;19911;-82
2022/04/25 14:41:54;;;;;;;;;;;;;;;5.97;100.00;98912.06;6306668;22;20216;-81
2022/04/25 14:44:19;;;;;;;;;;;;;;;5.91;100.00;98914.88;6303597;22;19972;-82
2022/04/25 14:46:45;;;;;;;;;;;;;;;5.86;100.00;98922.09;6305663;22;19915;-82
2022/04/25 14:49:15;;;;;;;;;;;;;;;5.87;100.00;98926.44;6304558;22;19911;-85
2022/04/25 14:54:30;;;;;;;;;;;;;;;5.74;100.00;98927.78;6305480;22;19937;-84
2022/04/25 14:56:56;;;;;;;;;;;;;;;5.60;100.00;98933.53;6306525;22;20243;-82
2022/04/25 14:59:21;;;;;;;;;;;;;;;5.63;100.00;98934.31;6304935;22;19918;-82
2022/04/25 15:01:48;;;;;;;;;;;;;;;5.63;100.00;98943.94;6306414;22;19923;-82
2022/04/25 15:04:13;;;;;;;;;;;;;;;5.50;100.00;98951.41;6304972;22;19918;-82
2022/04/25 15:06:38;;;;;;;;;;;;;;;5.52;100.00;98954.88;6306835;22;19915;-82
2022/04/25 15:09:04;;;;;;;;;;;;;;;5.46;100.00;98949.81;6306171;22;19931;-82
2022/04/25 15:11:30;;;;;;;;;;;;;;;5.35;100.00;98954.59;6306376;22;19956;-86
2022/04/25 15:13:55;;;;;;;;;;;;;;;5.38;100.00;98957.13;6304322;22;19985;-82
2022/04/25 15:16:21;;;;;;;;;;;;;;;5.41;99.86;98957.03;6306228;22;19914;-85
2022/04/25 15:18:46;;;;;;;;;;;;;;;5.36;99.55;98957.19;6306392;22;19911;-82
2022/04/25 15:21:12;;;;;;;;;;;;;;;5.33;99.20;98959.91;6278755;22;19917;-82
2022/04/25 15:23:40;;;;;;;;;;;;;;;5.23;99.03;98955.88;6305470;22;19942;-83
2022/04/25 15:26:09;;;;;;;;;;;;;;;5.20;99.03;98953.34;6306490;22;20277;-83
2022/04/25 15:28:34;;;;;;;;;;;;;;;5.15;98.63;98950.88;6304603;22;19907;-83
2022/04/25 15:30:59;;;;;;;;;;;;;;;5.08;98.61;98949.38;6306450;22;20669;-81
2022/04/25 15:33:25;;;;;;;;;;;;;;;5.16;98.31;98947.34;6305501;22;20298;-86
2022/04/25 15:35:50;;;;;;;;;;;;;;;5.04;97.99;98946.00;6307048;22;19914;-82
2022/04/25 15:38:15;;;;;;;;;;;;;;;5.06;98.11;98951.19;6306911;22;19914;-85
2022/04/25 15:40:42;;;;;;;;;;;;;;;4.98;97.95;98942.69;6281057;22;19963;-86
2022/04/25 15:43:08;;;;;;;;;;;;;;;5.01;97.51;98950.47;6306859;22;19942;-86
2022/04/25 15:45:37;;;;;;;;;;;;;;;4.94;97.31;98952.44;6306854;22;19915;-83
2022/04/25 15:48:02;;;;;;;;;;;;;;;4.95;97.10;98955.97;6308356;22;19911;-86
2022/04/25 15:50:30;;;;;;;;;;;;;;;4.94;96.77;98956.84;6308372;22;19922;-84
2022/04/25 15:52:55;;;;;;;;;;;;;;;4.90;96.79;98949.06;6308655;22;19911;-84
2022/04/25 15:58:04;;;;;;;;;;;;;;;4.88;96.37;98944.78;6308376;22;19922;-83
2022/04/25 16:00:30;;;;;;;;;;;;;;;4.87;96.17;98943.94;6306404;22;19915;-82
2022/04/25 16:02:57;;;;;;;;;;;;;;;4.83;96.17;98944.91;6281282;22;20516;-86
2022/04/25 16:05:23;;;;;;;;;;;;;;;4.83;95.86;98950.19;6308029;22;19950;-83
2022/04/25 16:07:48;;;;;;;;;;;;;;;4.80;95.86;98945.03;6308471;22;19911;-87
2022/04/25 16:10:14;;;;;;;;;;;;;;;4.81;95.64;98944.13;6308078;22;19914;-84
2022/04/25 16:12:40;;;;;;;;;;;;;;;4.77;95.53;98939.91;6308190;22;19989;-83
2022/04/25 16:15:06;;;;;;;;;;;;;;;4.74;95.54;98937.38;6306615;22;19915;-86
2022/04/25 16:17:31;;;;;;;;;;;;;;;4.76;95.24;98946.03;6308039;22;19911;-83
2022/04/25 16:19:57;;;;;;;;;;;;;;;4.75;95.01;98946.94;6280439;22;20342;-82
2022/04/25 16:22:22;;;;;;;;;;;;;;;4.71;94.82;98946.19;6308142;22;20266;-83
2022/04/25 16:24:48;;;;;;;;;;;;;;;4.70;94.69;98948.88;6308482;22;19911;-83
2022/04/25 16:27:13;;;;;;;;;;;;;;;4.70;94.62;98952.34;6308147;22;19919;-82
2022/04/25 16:29:38;;;;;;;;;;;;;;;4.69;94.38;98949.75;6306353;22;19929;-86
2022/04/25 16:32:04;;;;;;;;;;;;;;;4.70;94.48;98948.88;6307960;22;19918;-83
2022/04/25 16:34:29;;;;;;;;;;;;;;;4.69;94.44;98950.63;6307778;22;19906;-82
2022/04/25 16:36:56;;;;;;;;;;;;;;;4.67;94.22;98956.84;6307789;22;20238;-82
2022/04/25 16:39:22;;;;;;;;;;;;;;;4.65;94.27;98961.28;6307830;22;19911;-82
2022/04/25 16:41:48;;;;;;;;;;;;;;;4.67;93.98;98955.06;6307616;22;20394;-86
2022/04/25 16:44:13;;;;;;;;;;;;;;;4.67;93.99;98962.09;6306013;22;19950;-87
2022/04/25 16:46:39;;;;;;;;;;;;;;;4.62;93.92;98956.97;6280322;22;19911;-85
2022/04/25 16:49:06;;;;;;;;;;;;;;;4.63;93.98;98961.34;6307805;22;19936;-82
2022/04/25 16:51:31;;;;;;;;;;;;;;;4.62;94.04;98967.47;6307481;22;20235;-83
2022/04/25 16:53:57;;;;;;;;;;;;;;;4.63;93.96;98970.97;6307658;22;19922;-83
2022/04/25 16:56:23;;;;;;;;;;;;;;;4.59;93.87;98969.34;6307555;22;20048;-84
2022/04/25 16:58:48;;;;;;;;;;;;;;;4.59;94.00;98966.72;6305977;22;20199;-83
2022/04/25 17:01:13;;;;;;;;;;;;;;;4.52;93.82;98966.91;6307614;22;19993;-87
2022/04/25 17:03:39;;;;;;;;;;;;;;;4.58;93.75;98975.50;6307551;22;19915;-84
2022/04/25 17:06:04;;;;;;;;;;;;;;;4.57;93.67;98973.78;6307652;22;19910;-87
2022/04/25 17:08:29;;;;;;;;;;;;;;;4.58;93.75;98978.13;6307597;22;19946;-83
2022/04/25 17:11:00;;;;;;;;;;;;;;;4.58;93.89;98980.75;6307679;22;19946;-82
2022/04/25 17:13:25;;;;;;;;;;;;;;;4.53;93.84;98984.38;6307491;22;19934;-86
2022/04/25 17:15:51;;;;;;;;;;;;;;;4.54;93.87;98993.94;6306491;22;20311;-84
2022/04/25 17:18:17;;;;;;;;;;;;;;;4.64;93.67;98993.66;6307578;22;19919;-84
2022/04/25 17:20:42;;;;;;;;;;;;;;;4.52;93.50;98982.66;6307290;22;19933;-83
2022/04/25 17:23:07;;;;;;;;;;;;;;;4.51;93.83;98991.41;6307507;22;19915;-84
2022/04/25 17:25:33;;;;;;;;;;;;;;;4.54;93.92;98990.47;6307457;22;19911;-83
2022/04/25 17:27:58;;;;;;;;;;;;;;;4.53;94.20;98987.00;6307531;22;19915;-83
2022/04/25 17:30:24;;;;;;;;;;;;;;;4.55;94.29;98995.69;6305945;22;19911;-83
2022/04/25 17:35:34;;;;;;;;;;;;;;;4.51;94.19;98995.81;6306112;22;19933;-86
